Time;durP1;ratioP1;P1;durP2;ratioP2;P2;SDS_P1;SDS_P2;PMS_P1;PMS_P2;Temp;Humidity;BMP_temperature;BMP_pressure;BME280_temperature;BME280_humidity;BME280_pressure;Samples;Min_cycle;Max_cycle;Signal;HPM_P1;HPM_P2
2022/04/07 00:03:16;;;;;;;4.15;1.75;;;8.80;99.90;;;;;;7316559;32;20238;-58
2022/04/07 00:07:17;;;;;;;3.70;1.30;;;8.80;99.90;;;;;;7318341;32;20145;-59
2022/04/07 00:11:19;;;;;;;3.80;1.10;;;8.70;99.90;;;;;;7317648;32;20191;-59
2022/04/07 00:15:23;;;;;;;2.42;0.80;;;8.70;99.90;;;;;;7318624;32;20576;-58
2022/04/07 00:19:24;;;;;;;3.90;0.98;;;8.60;99.90;;;;;;7317218;32;20123;-58
2022/04/07 00:23:26;;;;;;;1.48;0.80;;;8.60;99.90;;;;;;7319084;32;20480;-58
2022/04/07 00:27:28;;;;;;;2.80;1.00;;;8.60;99.90;;;;;;7319441;32;20191;-59
2022/04/07 00:31:38;;;;;;;1.08;0.50;;;8.60;99.90;;;;;;7317077;32;20566;-58
2022/04/07 00:35:42;;;;;;;6.50;0.88;;;8.60;99.90;;;;;;7319945;32;20115;-58
2022/04/07 00:39:44;;;;;;;3.55;1.08;;;8.60;99.90;;;;;;7320706;32;20149;-58
2022/04/07 00:43:50;;;;;;;3.85;1.12;;;8.50;99.90;;;;;;7319177;32;20202;-58
2022/04/07 00:47:52;;;;;;;2.30;1.55;;;8.60;99.90;;;;;;7316960;32;20183;-58
2022/04/07 00:51:54;;;;;;;5.37;1.30;;;8.60;99.90;;;;;;7317588;32;20345;-59
2022/04/07 00:56:00;;;;;;;4.25;1.45;;;8.60;99.90;;;;;;7314399;32;20125;-58
2022/04/07 01:00:03;;;;;;;6.15;1.33;;;8.70;99.90;;;;;;7314033;32;20161;-58
2022/04/07 01:04:04;;;;;;;3.15;1.30;;;8.70;99.90;;;;;;7315662;32;20203;-58
2022/04/07 01:08:08;;;;;;;4.12;1.60;;;8.70;99.90;;;;;;7312089;32;20100;-60
2022/04/07 01:12:10;;;;;;;2.20;1.33;;;8.70;99.90;;;;;;7316634;32;20832;-59
2022/04/07 01:16:13;;;;;;;2.87;1.20;;;8.90;99.90;;;;;;7315553;32;20452;-59
2022/04/07 01:20:14;;;;;;;2.90;1.20;;;8.90;99.90;;;;;;7314763;32;20108;-60
2022/04/07 01:24:18;;;;;;;3.58;1.45;;;8.90;99.90;;;;;;7318032;32;20104;-59
2022/04/07 01:28:20;;;;;;;3.03;1.00;;;8.90;99.90;;;;;;7316803;32;20250;-59
2022/04/07 01:32:41;;;;;;;4.10;1.23;;;9.00;99.90;;;;;;7309008;32;20197;-60
2022/04/07 01:36:46;;;;;;;3.42;0.93;;;9.10;99.90;;;;;;7307096;32;20682;-59
2022/04/07 01:40:49;;;;;;;4.45;1.00;;;9.00;99.90;;;;;;7309920;32;20366;-59
2022/04/07 01:44:54;;;;;;;5.35;0.80;;;9.10;99.90;;;;;;7309744;32;20141;-59
2022/04/07 01:48:58;;;;;;;2.78;0.70;;;9.00;99.90;;;;;;7313406;32;20108;-59
2022/04/07 01:53:01;;;;;;;1.65;0.65;;;9.10;99.90;;;;;;7315717;32;20527;-60
2022/04/07 01:57:03;;;;;;;2.95;0.77;;;9.20;99.90;;;;;;7316552;32;20111;-59
2022/04/07 02:01:05;;;;;;;2.10;0.62;;;9.20;99.90;;;;;;7316641;32;20162;-60
2022/04/07 02:05:11;;;;;;;1.90;0.70;;;9.30;99.90;;;;;;7311867;32;20194;-60
2022/04/07 02:09:13;;;;;;;3.03;0.90;;;9.30;99.90;;;;;;7312912;32;20594;-59
2022/04/07 02:13:14;;;;;;;5.72;0.93;;;9.30;99.90;;;;;;7316723;32;20126;-60
2022/04/07 02:17:20;;;;;;;2.90;0.80;;;9.40;99.90;;;;;;7314502;32;20121;-59
2022/04/07 02:21:22;;;;;;;2.53;0.98;;;9.40;99.90;;;;;;7306858;32;20131;-59
2022/04/07 02:25:27;;;;;;;2.83;0.93;;;9.40;99.90;;;;;;7316751;32;20103;-59
2022/04/07 02:29:29;;;;;;;1.85;0.80;;;9.50;99.90;;;;;;7320226;32;20628;-58
2022/04/07 02:33:30;;;;;;;3.37;1.10;;;9.50;99.90;;;;;;7322831;32;20106;-59
2022/04/07 02:37:32;;;;;;;2.22;1.10;;;9.50;99.90;;;;;;7318841;32;20218;-59
2022/04/07 02:41:33;;;;;;;3.03;1.10;;;9.50;99.90;;;;;;7319518;32;20096;-59
2022/04/07 02:45:34;;;;;;;3.45;0.90;;;9.50;99.90;;;;;;7314342;32;20164;-60
2022/04/07 02:49:39;;;;;;;2.17;0.80;;;9.40;99.90;;;;;;7323794;32;20108;-60
2022/04/07 02:53:40;;;;;;;3.60;0.90;;;9.40;99.90;;;;;;7322486;32;20476;-59
2022/04/07 02:57:42;;;;;;;3.90;1.08;;;9.40;99.90;;;;;;7320539;32;20096;-58
2022/04/07 03:01:45;;;;;;;2.12;1.00;;;9.30;99.90;;;;;;7317031;32;20222;-59
2022/04/07 03:05:47;;;;;;;2.42;0.90;;;9.30;99.90;;;;;;7318384;32;20123;-60
2022/04/07 03:09:49;;;;;;;4.30;1.00;;;9.20;99.90;;;;;;7318825;32;20750;-60
2022/04/07 03:13:50;;;;;;;2.95;0.90;;;9.20;99.90;;;;;;7316595;32;20214;-59
2022/04/07 03:17:52;;;;;;;2.17;0.80;;;9.20;99.90;;;;;;7318370;32;20541;-60
2022/04/07 03:21:55;;;;;;;1.73;0.60;;;9.20;99.90;;;;;;7314170;32;20520;-59
2022/04/07 03:25:56;;;;;;;1.92;0.50;;;9.30;99.90;;;;;;7307849;32;20107;-59
2022/04/07 03:29:58;;;;;;;3.03;0.52;;;9.30;99.90;;;;;;7309139;32;20211;-59
2022/04/07 03:34:00;;;;;;;3.17;0.70;;;9.40;99.90;;;;;;7307615;32;20198;-59
2022/04/07 03:38:04;;;;;;;3.33;0.70;;;9.50;99.90;;;;;;7309295;32;20100;-59
2022/04/07 03:42:06;;;;;;;2.03;0.70;;;9.50;99.90;;;;;;7318964;32;20115;-59
2022/04/07 03:46:07;;;;;;;6.45;1.20;;;9.50;99.90;;;;;;7319509;32;20402;-59
2022/04/07 03:50:09;;;;;;;6.43;0.62;;;9.50;99.90;;;;;;7314661;32;20415;-59
2022/04/07 03:54:11;;;;;;;2.95;1.05;;;9.50;99.90;;;;;;7313395;32;20570;-59
2022/04/07 03:58:13;;;;;;;4.43;0.85;;;9.60;99.90;;;;;;7316959;32;20249;-59
2022/04/07 04:02:14;;;;;;;3.97;1.05;;;9.60;99.90;;;;;;7317231;32;20118;-59
2022/04/07 04:06:20;;;;;;;3.42;0.77;;;9.60;99.90;;;;;;7320816;32;20108;-59
2022/04/07 04:10:23;;;;;;;3.70;0.68;;;9.60;99.90;;;;;;7315331;32;20159;-60
2022/04/07 04:14:25;;;;;;;3.83;0.65;;;9.70;99.90;;;;;;7318054;32;20431;-59
2022/04/07 04:18:27;;;;;;;2.45;0.60;;;9.70;99.90;;;;;;7320252;32;20126;-60
2022/04/07 04:22:28;;;;;;;5.10;0.60;;;9.70;99.90;;;;;;7318386;32;20107;-59
2022/04/07 04:26:30;;;;;;;2.75;0.70;;;9.70;99.90;;;;;;7317522;32;20274;-59
2022/04/07 04:30:32;;;;;;;3.30;1.10;;;9.70;99.90;;;;;;7309834;32;20207;-59
2022/04/07 04:34:33;;;;;;;4.30;0.75;;;9.80;99.90;;;;;;7316458;32;20103;-60
2022/04/07 04:38:35;;;;;;;2.87;0.90;;;9.80;99.90;;;;;;7318734;32;20100;-59
2022/04/07 04:42:40;;;;;;;3.22;1.25;;;9.50;99.90;;;;;;7316058;32;20103;-60
2022/04/07 04:46:42;;;;;;;2.75;0.93;;;9.30;99.90;;;;;;7311855;32;20267;-59
2022/04/07 04:50:44;;;;;;;1.25;0.80;;;9.10;99.90;;;;;;7319313;32;20107;-59
2022/04/07 04:54:45;;;;;;;2.08;0.95;;;9.10;99.90;;;;;;7315764;32;20137;-58
2022/04/07 04:58:47;;;;;;;3.95;1.10;;;9.10;99.90;;;;;;7313177;32;20778;-61
2022/04/07 05:02:48;;;;;;;3.08;1.00;;;9.00;99.90;;;;;;7310006;32;20107;-60
2022/04/07 05:06:50;;;;;;;2.90;0.82;;;9.10;99.90;;;;;;7312470;32;20215;-61
2022/04/07 05:10:52;;;;;;;4.25;0.90;;;9.10;99.90;;;;;;7312371;32;20195;-62
2022/04/07 05:14:53;;;;;;;2.45;0.90;;;9.10;99.90;;;;;;7311975;32;20130;-60
2022/04/07 05:18:55;;;;;;;2.22;1.00;;;9.20;99.90;;;;;;7309955;32;20577;-61
2022/04/07 05:22:57;;;;;;;1.65;1.02;;;9.10;99.90;;;;;;7318272;32;20829;-62
2022/04/07 05:26:59;;;;;;;1.65;0.98;;;9.20;99.90;;;;;;7317808;32;20482;-59
2022/04/07 05:31:00;;;;;;;3.05;1.00;;;9.20;99.90;;;;;;7315701;32;20594;-58
2022/04/07 05:35:02;;;;;;;2.03;1.00;;;9.30;99.90;;;;;;7310064;32;20563;-58
2022/04/07 05:39:05;;;;;;;2.70;0.50;;;9.20;99.90;;;;;;7309270;32;20100;-58
2022/04/07 05:43:07;;;;;;;1.70;0.70;;;9.50;99.90;;;;;;7317166;32;20158;-59
2022/04/07 05:47:08;;;;;;;3.67;0.50;;;9.40;99.90;;;;;;7316324;32;20171;-59
2022/04/07 05:51:11;;;;;;;1.70;0.57;;;9.50;99.90;;;;;;7314936;32;20146;-59
2022/04/07 05:55:13;;;;;;;2.33;0.62;;;9.60;99.90;;;;;;7315641;32;20210;-58
2022/04/07 05:59:15;;;;;;;1.73;0.45;;;9.60;99.90;;;;;;7313679;32;20578;-59
2022/04/07 06:03:16;;;;;;;1.62;0.73;;;9.70;99.90;;;;;;7309421;32;20153;-59
2022/04/07 06:07:18;;;;;;;2.05;0.60;;;9.70;99.90;;;;;;7307167;32;20108;-59
2022/04/07 06:11:19;;;;;;;2.67;0.55;;;9.60;99.90;;;;;;7310261;32;20107;-60
2022/04/07 06:15:21;;;;;;;2.03;0.50;;;9.50;99.90;;;;;;7315769;32;20516;-59
2022/04/07 06:19:23;;;;;;;1.95;0.70;;;9.40;99.90;;;;;;7312969;32;20103;-60
2022/04/07 06:23:26;;;;;;;2.12;0.62;;;9.40;99.90;;;;;;7316270;32;20100;-60
2022/04/07 06:27:54;;;;;;;2.37;0.75;;;9.30;99.90;;;;;;7314480;32;20122;-59
2022/04/07 06:31:55;;;;;;;3.47;0.60;;;9.30;99.90;;;;;;7312392;32;20317;-60
2022/04/07 06:35:58;;;;;;;2.20;0.62;;;9.20;99.90;;;;;;7318518;32;20112;-59
2022/04/07 06:40:01;;;;;;;0.93;0.47;;;9.20;99.90;;;;;;7316162;32;20107;-59
2022/04/07 06:44:03;;;;;;;2.05;0.47;;;9.20;99.90;;;;;;7305417;32;20123;-59
2022/04/07 06:48:04;;;;;;;2.33;0.55;;;9.20;99.90;;;;;;7309915;32;20103;-60
2022/04/07 06:52:07;;;;;;;0.95;0.50;;;9.20;99.90;;;;;;7310681;32;20218;-60
2022/04/07 06:56:10;;;;;;;2.60;0.60;;;9.20;99.90;;;;;;7317624;32;20162;-59
2022/04/07 07:00:12;;;;;;;1.70;0.57;;;9.30;99.90;;;;;;7313041;32;20508;-60
2022/04/07 07:04:14;;;;;;;4.15;0.60;;;9.30;99.90;;;;;;7313967;32;20503;-59
2022/04/07 07:08:20;;;;;;;2.92;0.60;;;9.40;99.90;;;;;;7315125;32;20208;-59
2022/04/07 07:12:21;;;;;;;1.15;0.45;;;9.40;99.90;;;;;;7319330;32;20128;-59
2022/04/07 07:16:23;;;;;;;3.33;0.70;;;9.50;99.90;;;;;;7318307;32;20099;-60
2022/04/07 07:20:25;;;;;;;2.10;0.55;;;9.60;99.90;;;;;;7318495;32;20162;-59
2022/04/07 07:24:26;;;;;;;1.33;0.45;;;9.60;99.90;;;;;;7319265;32;20476;-60
2022/04/07 07:28:28;;;;;;;2.53;0.70;;;9.60;99.90;;;;;;7314311;32;20222;-59
2022/04/07 07:32:29;;;;;;;1.87;0.60;;;9.50;99.90;;;;;;7316241;32;20126;-59
2022/04/07 07:36:31;;;;;;;1.33;0.52;;;9.60;99.90;;;;;;7321728;32;20107;-59
2022/04/07 07:40:33;;;;;;;1.73;0.50;;;9.60;99.90;;;;;;7314125;32;20673;-59
2022/04/07 07:44:34;;;;;;;1.90;0.50;;;9.60;99.90;;;;;;7315333;32;20129;-59
2022/04/07 07:48:36;;;;;;;1.23;0.50;;;9.60;99.90;;;;;;7315803;32;20134;-62
2022/04/07 07:52:38;;;;;;;0.43;0.20;;;9.60;99.90;;;;;;7313904;32;20104;-59
2022/04/07 07:56:39;;;;;;;1.35;0.30;;;9.70;99.90;;;;;;7316630;32;20128;-60
2022/04/07 08:00:42;;;;;;;2.50;0.30;;;9.80;99.90;;;;;;7314205;32;20786;-59
2022/04/07 08:04:44;;;;;;;2.17;0.20;;;9.80;99.90;;;;;;7317843;32;20493;-58
2022/04/07 08:08:45;;;;;;;0.98;0.20;;;9.80;99.90;;;;;;7317023;32;20126;-58
2022/04/07 08:12:55;;;;;;;0.73;0.20;;;9.70;99.90;;;;;;7315987;32;20126;-60
2022/04/07 08:16:57;;;;;;;0.50;0.20;;;9.60;99.90;;;;;;7318774;32;20123;-61
2022/04/07 08:20:58;;;;;;;1.35;0.20;;;9.70;99.90;;;;;;7314947;32;20103;-59
2022/04/07 08:25:00;;;;;;;1.95;0.10;;;9.80;99.90;;;;;;7313855;32;20141;-59
2022/04/07 08:29:02;;;;;;;0.95;0.30;;;9.90;99.90;;;;;;7314962;32;20142;-59
2022/04/07 08:33:04;;;;;;;1.37;0.30;;;10.10;99.90;;;;;;7316391;32;20242;-59
2022/04/07 08:37:06;;;;;;;0.95;0.20;;;10.20;99.90;;;;;;7315010;32;20137;-59
2022/04/07 08:41:09;;;;;;;0.88;0.20;;;10.20;99.90;;;;;;7318395;32;20493;-59
2022/04/07 08:45:11;;;;;;;0.40;0.20;;;10.30;99.90;;;;;;7317166;32;20182;-59
2022/04/07 08:49:14;;;;;;;0.20;0.20;;;10.40;99.90;;;;;;7315133;32;20218;-59
2022/04/07 08:53:16;;;;;;;0.55;0.10;;;10.50;99.90;;;;;;7313414;32;20096;-59
2022/04/07 08:57:18;;;;;;;0.13;0.10;;;10.50;99.90;;;;;;7315861;32;20119;-59
2022/04/07 09:01:20;;;;;;;1.65;0.20;;;10.60;99.90;;;;;;7313216;32;20473;-59
2022/04/07 09:05:26;;;;;;;0.88;0.20;;;10.70;99.90;;;;;;7315924;32;20684;-60
2022/04/07 09:09:32;;;;;;;0.85;0.10;;;10.80;99.90;;;;;;7314576;32;20210;-59
2022/04/07 09:13:42;;;;;;;0.17;0.08;;;11.00;99.90;;;;;;7315979;32;20100;-60
2022/04/07 09:17:51;;;;;;;0.32;0.10;;;11.00;99.90;;;;;;7314576;32;20129;-59
2022/04/07 09:22:10;;;;;;;0.82;0.20;;;11.10;99.90;;;;;;7316174;32;20107;-59
2022/04/07 09:26:14;;;;;;;0.62;0.10;;;11.10;99.90;;;;;;7316035;32;20100;-60
2022/04/07 09:30:16;;;;;;;0.32;0.20;;;11.10;99.90;;;;;;7310079;32;20133;-61
2022/04/07 09:34:38;;;;;;;2.75;0.25;;;11.10;99.90;;;;;;7313594;32;20215;-60
2022/04/07 09:38:40;;;;;;;2.03;0.40;;;10.90;99.90;;;;;;7313849;32;20114;-58
2022/04/07 09:42:42;;;;;;;1.90;0.30;;;9.60;99.90;;;;;;7310012;32;20213;-60
2022/04/07 09:46:44;;;;;;;1.45;0.20;;;8.70;99.90;;;;;;7308738;32;20096;-60
2022/04/07 09:51:03;;;;;;;0.85;0.30;;;8.30;99.90;;;;;;7313561;32;20146;-62
2022/04/07 09:55:08;;;;;;;2.78;0.47;;;8.20;99.90;;;;;;7313205;32;20123;-60
2022/04/07 09:59:12;;;;;;;1.33;0.30;;;8.20;99.90;;;;;;7310965;32;20538;-57
2022/04/07 10:03:14;;;;;;;2.45;0.30;;;8.30;99.90;;;;;;7312159;32;20263;-57
2022/04/07 10:07:17;;;;;;;2.58;0.45;;;8.30;99.90;;;;;;7315992;32;20104;-58
2022/04/07 10:11:19;;;;;;;1.80;0.55;;;8.30;99.90;;;;;;7317118;32;20111;-58
2022/04/07 10:15:27;;;;;;;2.25;0.50;;;8.40;99.90;;;;;;7312603;32;20100;-58
2022/04/07 10:19:51;;;;;;;1.12;0.60;;;8.60;99.90;;;;;;7315141;32;20199;-59
2022/04/07 10:24:27;;;;;;;1.40;0.70;;;8.70;99.90;;;;;;7314431;32;20527;-58
2022/04/07 10:28:58;;;;;;;2.12;0.80;;;8.90;99.90;;;;;;7310906;32;20127;-58
2022/04/07 10:33:00;;;;;;;0.60;0.40;;;9.20;99.90;;;;;;7312249;32;20095;-59
2022/04/07 10:37:08;;;;;;;0.85;0.50;;;9.40;99.90;;;;;;7315048;32;20688;-60
2022/04/07 10:41:10;;;;;;;1.58;0.50;;;9.70;99.90;;;;;;7314405;32;20689;-61
2022/04/07 10:45:12;;;;;;;0.47;0.22;;;10.40;99.90;;;;;;7315561;32;20125;-60
2022/04/07 10:49:33;;;;;;;3.40;0.32;;;11.00;99.90;;;;;;7318071;32;20092;-58
2022/04/07 10:53:52;;;;;;;1.17;0.35;;;11.40;99.90;;;;;;7317082;32;20159;-58
2022/04/07 10:58:10;;;;;;;1.33;0.30;;;11.40;99.90;;;;;;7321547;32;20203;-57
2022/04/07 11:02:15;;;;;;;1.75;0.20;;;11.90;99.90;;;;;;7317733;32;20306;-59
2022/04/07 11:06:22;;;;;;;0.95;0.30;;;12.30;99.90;;;;;;7318654;32;20108;-59
2022/04/07 11:10:45;;;;;;;0.93;0.32;;;12.40;99.90;;;;;;7315247;32;20138;-58
2022/04/07 11:14:49;;;;;;;1.30;0.25;;;12.70;99.90;;;;;;7318320;32;20147;-58
2022/04/07 11:19:04;;;;;;;1.62;0.20;;;12.40;99.90;;;;;;7309844;32;20136;-58
2022/04/07 11:23:10;;;;;;;2.20;0.32;;;12.40;99.90;;;;;;7318897;32;20496;-60
2022/04/07 11:27:35;;;;;;;2.62;0.30;;;12.60;99.90;;;;;;7317650;32;20112;-59
2022/04/07 11:32:06;;;;;;;2.92;0.30;;;12.50;99.90;;;;;;7316943;32;20336;-60
2022/04/07 11:36:11;;;;;;;1.05;0.50;;;12.50;99.90;;;;;;7317599;32;20226;-59
2022/04/07 11:40:13;;;;;;;2.65;0.40;;;12.40;99.90;;;;;;7313921;32;20108;-59
2022/04/07 11:44:18;;;;;;;2.58;0.30;;;12.10;99.90;;;;;;7317277;32;20115;-59
2022/04/07 11:48:23;;;;;;;2.12;0.43;;;12.50;99.90;;;;;;7314172;32;20223;-59
2022/04/07 11:52:27;;;;;;;4.75;0.50;;;12.50;99.90;;;;;;7317655;32;20138;-59
2022/04/07 11:56:32;;;;;;;2.42;0.50;;;12.40;99.90;;;;;;7318629;32;20597;-59
2022/04/07 12:00:33;;;;;;;4.57;0.50;;;12.20;99.90;;;;;;7315001;32;20815;-59
2022/04/07 12:04:35;;;;;;;6.72;0.45;;;12.10;99.90;;;;;;7314542;32;20100;-59
2022/04/07 12:08:37;;;;;;;1.12;0.30;;;12.00;99.90;;;;;;7311863;32;20709;-59
2022/04/07 12:12:39;;;;;;;1.42;0.55;;;12.00;99.90;;;;;;7320806;32;20485;-59
2022/04/07 12:16:46;;;;;;;2.12;0.52;;;11.90;99.90;;;;;;7315326;32;20162;-59
2022/04/07 12:20:58;;;;;;;2.28;0.28;;;12.50;99.90;;;;;;7314609;32;20630;-60
2022/04/07 12:25:06;;;;;;;1.80;0.40;;;13.30;99.90;;;;;;7312441;32;20195;-56
2022/04/07 12:29:08;;;;;;;1.27;0.30;;;13.70;99.90;;;;;;7310458;32;20567;-55
2022/04/07 12:33:09;;;;;;;0.68;0.30;;;13.80;99.90;;;;;;7307659;32;20659;-56
2022/04/07 12:37:38;;;;;;;4.28;0.70;;;13.80;99.90;;;;;;7314574;32;20583;-56
2022/04/07 12:41:40;;;;;;;4.07;0.90;;;13.70;99.90;;;;;;7309146;32;20548;-59
2022/04/07 12:45:58;;;;;;;4.37;0.90;;;13.20;99.90;;;;;;7312989;32;20132;-59
2022/04/07 12:50:02;;;;;;;1.50;0.40;;;13.20;99.90;;;;;;7314277;32;20175;-59
2022/04/07 12:54:05;;;;;;;1.95;0.60;;;13.00;99.90;;;;;;7315062;32;20144;-59
2022/04/07 12:58:09;;;;;;;5.85;1.15;;;12.60;99.90;;;;;;7315518;32;20135;-59
2022/04/07 13:02:11;;;;;;;7.40;1.20;;;12.10;99.90;;;;;;7311488;32;20112;-59
2022/04/07 13:06:14;;;;;;;8.30;1.33;;;11.30;99.90;;;;;;7316296;32;20189;-59
2022/04/07 13:10:16;;;;;;;8.73;1.73;;;11.00;99.90;;;;;;7313628;32;20755;-60
2022/04/07 13:14:18;;;;;;;6.97;1.50;;;10.20;99.90;;;;;;7314697;32;20214;-59
2022/04/07 13:18:19;;;;;;;5.15;1.75;;;9.30;99.90;;;;;;7316146;32;20104;-60
2022/04/07 13:22:23;;;;;;;8.25;1.55;;;9.40;99.90;;;;;;7315563;32;20104;-60
2022/04/07 13:26:25;;;;;;;4.70;1.40;;;9.50;99.90;;;;;;7312402;32;20103;-60
2022/04/07 13:30:27;;;;;;;6.85;1.55;;;9.60;99.90;;;;;;7313700;32;20095;-59
2022/04/07 13:34:28;;;;;;;5.37;1.30;;;9.80;99.90;;;;;;7312003;32;20100;-59
2022/04/07 13:38:32;;;;;;;7.07;1.52;;;9.90;99.90;;;;;;7314946;32;20432;-60
2022/04/07 13:42:34;;;;;;;9.35;1.90;;;10.10;99.90;;;;;;7315497;32;20321;-59
2022/04/07 13:46:36;;;;;;;8.15;1.62;;;10.20;99.90;;;;;;7314063;32;20564;-59
2022/04/07 13:50:39;;;;;;;7.93;1.60;;;10.60;99.90;;;;;;7309040;32;20213;-59
2022/04/07 13:54:41;;;;;;;6.03;1.30;;;11.20;99.90;;;;;;7315950;32;20104;-60
2022/04/07 13:58:42;;;;;;;10.13;1.40;;;11.50;99.90;;;;;;7314953;32;20135;-60
2022/04/07 14:02:44;;;;;;;6.60;0.93;;;11.90;99.90;;;;;;7316879;32;20157;-60
2022/04/07 14:06:46;;;;;;;6.82;1.45;;;11.80;99.90;;;;;;7315973;32;20107;-60
2022/04/07 14:10:48;;;;;;;7.37;1.30;;;11.40;99.90;;;;;;7316321;32;20339;-59
2022/04/07 14:14:49;;;;;;;9.77;1.45;;;11.30;99.90;;;;;;7320530;32;20187;-59
2022/04/07 14:18:51;;;;;;;6.87;1.17;;;11.00;99.90;;;;;;7319817;32;20173;-59
2022/04/07 14:22:52;;;;;;;7.72;1.00;;;10.80;99.90;;;;;;7321840;32;20108;-59
2022/04/07 14:26:55;;;;;;;9.23;1.58;;;10.60;99.90;;;;;;7321565;32;20573;-59
2022/04/07 14:30:58;;;;;;;7.40;1.40;;;10.40;99.90;;;;;;7317221;32;20225;-60
2022/04/07 14:35:00;;;;;;;6.65;1.02;;;10.40;99.90;;;;;;7313128;32;20161;-59
2022/04/07 14:39:02;;;;;;;6.70;1.02;;;10.60;99.90;;;;;;7316379;32;20126;-59
2022/04/07 14:43:04;;;;;;;5.93;1.25;;;10.70;99.90;;;;;;7314298;32;20099;-59
2022/04/07 14:47:06;;;;;;;4.20;1.08;;;10.80;99.90;;;;;;7317114;32;20435;-59
2022/04/07 14:51:10;;;;;;;6.12;1.20;;;10.60;99.90;;;;;;7318512;32;20103;-60
2022/04/07 14:55:11;;;;;;;6.47;1.80;;;10.30;99.90;;;;;;7318341;32;20520;-59
2022/04/07 14:59:13;;;;;;;5.70;1.10;;;9.80;99.90;;;;;;7319108;32;20470;-61
2022/04/07 15:03:15;;;;;;;6.72;1.08;;;9.90;99.90;;;;;;7315526;32;20248;-59
2022/04/07 15:07:16;;;;;;;7.07;1.33;;;10.00;99.90;;;;;;7317510;32;20426;-60
2022/04/07 15:11:18;;;;;;;6.47;1.50;;;10.10;99.90;;;;;;7324158;32;20567;-59
2022/04/07 15:15:20;;;;;;;8.77;1.45;;;10.10;99.90;;;;;;7316905;32;20115;-59
2022/04/07 15:19:22;;;;;;;9.25;1.50;;;9.90;99.90;;;;;;7317837;32;20641;-59
2022/04/07 15:23:30;;;;;;;11.70;1.92;;;9.90;99.90;;;;;;7314958;32;20143;-60
2022/04/07 15:27:32;;;;;;;6.35;1.00;;;9.70;99.90;;;;;;7317609;32;20108;-60
2022/04/07 15:31:34;;;;;;;6.10;0.88;;;9.40;99.90;;;;;;7315565;32;20550;-59
2022/04/07 15:35:36;;;;;;;7.30;1.08;;;8.80;99.90;;;;;;7317688;32;20123;-60
2022/04/07 15:39:38;;;;;;;5.53;0.80;;;8.70;99.90;;;;;;7313966;32;20218;-59
2022/04/07 15:43:41;;;;;;;3.25;1.05;;;8.60;99.90;;;;;;7310850;32;20174;-58
2022/04/07 15:47:43;;;;;;;3.05;0.80;;;8.30;99.90;;;;;;7316053;32;20538;-60
2022/04/07 15:51:44;;;;;;;3.70;0.82;;;7.50;99.90;;;;;;7314686;32;20237;-59
2022/04/07 15:55:47;;;;;;;6.43;0.80;;;7.00;99.90;;;;;;7315159;32;20285;-61
2022/04/07 15:59:50;;;;;;;6.75;0.98;;;7.00;99.90;;;;;;7312854;32;20095;-60
2022/04/07 16:03:52;;;;;;;7.68;1.05;;;7.00;99.90;;;;;;7316102;32;20416;-62
2022/04/07 16:07:54;;;;;;;5.57;1.00;;;6.90;99.90;;;;;;7309533;32;20516;-59
2022/04/07 16:11:55;;;;;;;9.63;2.00;;;6.90;99.90;;;;;;7316630;32;20136;-61
2022/04/07 16:15:57;;;;;;;6.45;0.98;;;7.00;99.90;;;;;;7316056;32;20138;-61
2022/04/07 16:20:01;;;;;;;5.22;0.70;;;7.10;99.90;;;;;;7309385;32;20206;-59
2022/04/07 16:24:04;;;;;;;5.35;0.73;;;7.30;99.90;;;;;;7314596;32;20139;-60
2022/04/07 16:28:06;;;;;;;3.37;0.93;;;7.30;99.90;;;;;;7317309;32;20134;-61
2022/04/07 16:32:13;;;;;;;7.05;1.02;;;7.10;99.90;;;;;;7312824;32;20909;-61
2022/04/07 16:36:16;;;;;;;6.18;1.00;;;7.00;99.90;;;;;;7314161;32;20518;-60
2022/04/07 16:40:18;;;;;;;5.93;0.75;;;6.90;99.90;;;;;;7317024;32;20121;-60
2022/04/07 16:44:20;;;;;;;3.90;0.60;;;6.90;99.90;;;;;;7316316;32;20199;-58
2022/04/07 16:48:22;;;;;;;4.78;0.80;;;7.10;99.90;;;;;;7317710;32;20396;-58
2022/04/07 16:52:24;;;;;;;2.45;0.45;;;7.10;99.90;;;;;;7314811;32;20126;-60
2022/04/07 16:56:29;;;;;;;3.92;0.65;;;7.10;99.90;;;;;;7317341;32;20240;-58
2022/04/07 17:00:31;;;;;;;4.87;0.77;;;6.90;99.90;;;;;;7317228;32;20999;-60
2022/04/07 17:04:33;;;;;;;3.65;0.70;;;7.00;99.90;;;;;;7313488;32;20112;-58
2022/04/07 17:08:35;;;;;;;3.87;1.05;;;7.20;99.90;;;;;;7317345;32;20550;-59
2022/04/07 17:12:38;;;;;;;7.80;1.00;;;7.20;99.90;;;;;;7317048;32;20141;-60
2022/04/07 17:16:39;;;;;;;4.95;0.98;;;7.40;99.90;;;;;;7311427;32;20224;-60
2022/04/07 17:20:41;;;;;;;3.70;0.80;;;7.40;99.90;;;;;;7312145;32;20214;-60
2022/04/07 17:24:48;;;;;;;2.50;0.30;;;7.50;99.90;;;;;;7312551;32;20351;-58
2022/04/07 17:28:50;;;;;;;3.80;0.60;;;7.60;99.90;;;;;;7315150;32;20291;-64
2022/04/07 17:32:51;;;;;;;2.28;0.40;;;7.70;99.90;;;;;;7311375;32;20091;-59
2022/04/07 17:36:53;;;;;;;2.78;0.45;;;7.70;99.90;;;;;;7313573;32;20768;-59
2022/04/07 17:40:55;;;;;;;3.55;0.82;;;7.60;99.90;;;;;;7315760;32;20264;-60
2022/04/07 17:44:57;;;;;;;4.40;0.52;;;7.50;99.90;;;;;;7313637;32;20207;-60
2022/04/07 17:48:59;;;;;;;1.80;0.50;;;7.60;99.90;;;;;;7314883;32;20241;-61
2022/04/07 17:53:01;;;;;;;5.68;1.05;;;7.70;99.90;;;;;;7316589;32;20126;-59
2022/04/07 17:57:03;;;;;;;1.98;0.47;;;7.80;99.90;;;;;;7310154;32;20503;-59
2022/04/07 18:01:04;;;;;;;6.25;0.88;;;7.90;99.90;;;;;;7311508;32;20157;-60
2022/04/07 18:05:10;;;;;;;5.85;0.77;;;8.00;99.90;;;;;;7316311;32;20204;-59
2022/04/07 18:09:12;;;;;;;4.90;0.90;;;8.00;99.90;;;;;;7315993;32;20339;-60
2022/04/07 18:13:16;;;;;;;3.87;0.57;;;8.00;99.90;;;;;;7318470;32;20241;-59
2022/04/07 18:17:17;;;;;;;2.53;0.70;;;8.00;99.90;;;;;;7313218;32;20111;-59
2022/04/07 18:21:19;;;;;;;3.70;0.90;;;8.00;99.90;;;;;;7310895;32;20133;-59
2022/04/07 18:25:21;;;;;;;6.18;1.12;;;7.90;99.90;;;;;;7306161;32;20158;-58
2022/04/07 18:29:23;;;;;;;5.90;0.90;;;8.00;99.90;;;;;;7316053;32;20222;-57
2022/04/07 18:33:25;;;;;;;6.80;1.30;;;8.10;99.90;;;;;;7314260;32;20194;-60
2022/04/07 18:37:26;;;;;;;7.60;1.48;;;8.30;99.90;;;;;;7299956;32;20315;-59
2022/04/07 18:41:38;;;;;;;8.60;1.12;;;8.50;99.90;;;;;;7308779;32;20324;-59
2022/04/07 18:45:40;;;;;;;9.93;1.48;;;8.40;99.90;;;;;;7314870;32;20131;-59
2022/04/07 18:49:41;;;;;;;10.90;1.65;;;8.30;99.90;;;;;;7312852;32;20609;-60
2022/04/07 18:53:43;;;;;;;10.63;1.48;;;8.10;99.90;;;;;;7314306;32;20099;-60
2022/04/07 18:57:45;;;;;;;9.95;1.40;;;8.20;99.90;;;;;;7316471;32;20228;-60
2022/04/07 19:01:49;;;;;;;8.95;1.25;;;8.30;99.90;;;;;;7310232;32;20212;-61
2022/04/07 19:05:51;;;;;;;15.82;1.90;;;8.40;99.90;;;;;;7317531;32;20144;-59
2022/04/07 19:09:53;;;;;;;10.95;2.17;;;8.50;99.90;;;;;;7319114;32;20091;-61
2022/04/07 19:13:54;;;;;;;9.20;1.70;;;8.60;99.90;;;;;;7317026;32;20119;-60
2022/04/07 19:17:56;;;;;;;10.35;1.50;;;8.70;99.90;;;;;;7310736;32;20123;-60
2022/04/07 19:21:58;;;;;;;11.27;2.00;;;8.70;99.90;;;;;;7316850;32;20230;-62
2022/04/07 19:26:01;;;;;;;11.18;1.92;;;8.80;99.90;;;;;;7317067;32;20845;-60
2022/04/07 19:30:04;;;;;;;9.68;1.60;;;8.80;99.90;;;;;;7318407;32;20108;-60
2022/04/07 19:34:07;;;;;;;11.95;1.60;;;8.70;99.90;;;;;;7321157;32;20103;-60
2022/04/07 19:38:09;;;;;;;7.95;1.73;;;8.60;99.90;;;;;;7317130;32;20116;-61
2022/04/07 19:42:13;;;;;;;13.68;1.48;;;8.50;99.90;;;;;;7319792;32;20336;-60
2022/04/07 19:46:16;;;;;;;7.60;1.45;;;8.50;99.90;;;;;;7311403;32;20579;-60
2022/04/07 19:50:19;;;;;;;9.20;1.20;;;8.50;99.90;;;;;;7316601;32;20200;-62
2022/04/07 19:54:21;;;;;;;5.70;1.40;;;8.50;99.90;;;;;;7316650;32;20118;-60
2022/04/07 19:58:22;;;;;;;7.82;1.10;;;8.40;99.90;;;;;;7318315;32;20317;-60
2022/04/07 20:02:24;;;;;;;17.08;1.62;;;8.40;99.90;;;;;;7320096;32;20135;-61
2022/04/07 20:06:26;;;;;;;6.32;1.20;;;8.40;99.90;;;;;;7319582;32;20229;-59
2022/04/07 20:10:27;;;;;;;6.12;1.23;;;8.50;99.90;;;;;;7318873;32;20704;-61
2022/04/07 20:14:29;;;;;;;9.02;1.65;;;8.40;99.90;;;;;;7320483;32;20162;-60
2022/04/07 20:18:31;;;;;;;10.15;1.83;;;8.30;99.90;;;;;;7315163;32;20177;-59
2022/04/07 20:22:33;;;;;;;7.15;1.58;;;8.20;99.90;;;;;;7318232;32;20809;-60
2022/04/07 20:26:39;;;;;;;3.40;0.62;;;7.90;99.90;;;;;;7319031;32;20220;-61
2022/04/07 20:30:44;;;;;;;6.47;0.93;;;7.60;99.90;;;;;;7316482;32;20103;-57
2022/04/07 20:34:46;;;;;;;3.25;0.95;;;7.10;99.90;;;;;;7317370;32;20194;-61
2022/04/07 20:38:47;;;;;;;5.18;0.70;;;6.80;99.90;;;;;;7318147;32;20126;-60
2022/04/07 20:42:49;;;;;;;3.33;0.60;;;6.70;99.90;;;;;;7314911;32;20133;-59
2022/04/07 20:46:51;;;;;;;8.77;1.58;;;6.50;99.90;;;;;;7317772;32;20630;-60
2022/04/07 20:50:53;;;;;;;3.28;0.90;;;6.50;99.90;;;;;;7318412;32;20096;-61
2022/04/07 20:54:54;;;;;;;7.57;1.10;;;6.50;99.90;;;;;;7315154;32;20183;-61
2022/04/07 20:58:56;;;;;;;5.12;0.80;;;6.50;99.90;;;;;;7315276;32;20111;-59
2022/04/07 21:02:58;;;;;;;8.88;1.05;;;6.50;99.90;;;;;;7314190;32;20111;-60
2022/04/07 21:07:00;;;;;;;7.10;1.20;;;6.50;99.90;;;;;;7319902;32;20096;-59
2022/04/07 21:11:09;;;;;;;4.90;1.00;;;6.50;99.90;;;;;;7316187;32;20107;-61
2022/04/07 21:15:11;;;;;;;6.50;1.05;;;6.50;99.90;;;;;;7313790;32;20670;-60
2022/04/07 21:19:14;;;;;;;5.00;0.88;;;6.60;99.90;;;;;;7317959;32;20190;-60
2022/04/07 21:23:16;;;;;;;3.58;0.77;;;6.60;99.90;;;;;;7319793;32;20286;-60